Latest Weather Observations for Toowoomba

IDQ60801

Issued at 10:13 am EST Friday 23 February 2024 (issued every 10 minutes, with the page automatically refreshed every 10 minutes)

About weather observations | Map of weather stations | Latest weather observations for QLD | Other Formats
Station Details ID: 041529 Name: TOOWOOMBA AIRPORT Lat: -27.54 Lon: 151.91 Height: 640.9 m
Data from the previous 72 hours. | See also: Recent months at Toowoomba
Date/Time
EST
Temp
°C
App
Temp
°C
Dew
Point
°C
Rel
Hum
%
Delta-T
°C
Wind Press
QNH
hPa
Press
MSL
hPa
Rain since
9am
mm
Dir  Spd
km/h
Gust
km/h
Spd
kts
Gust
kts
23/10:00am 27.2 28.4 19.8 64 4.9 WNW 13 20 7 11 1018.0 1014.4 0.0
23/09:30am 26.7 27.4 19.6 65 4.7 WNW 15 20 8 11 1018.1 1014.5 0.0
23/09:00am 25.7 26.2 20.0 71 3.8 WNW 17 22 9 12 1018.1 1014.5 3.8
23/08:30am 24.9 25.1 20.2 75 3.1 NW 19 24 10 13 1018.1 1014.5 3.8
23/08:00am 24.5 25.3 19.8 75 3.1 NW 15 22 8 12 1018.0 1014.4 3.8
23/07:30am 23.6 24.5 19.3 77 2.8 NW 13 17 7 9 1017.9 1014.3 3.8
23/07:00am 22.7 24.9 19.7 83 2.0 NW 7 11 4 6 1017.7 1014.1 3.8
23/06:30am 21.4 25.1 19.9 91 1.0 CALM 0 4 0 2 1017.3 1013.7 3.8
23/06:00am 20.0 22.3 19.5 97 0.3 ENE 6 7 3 4 1017.0 1013.3 3.8
23/05:30am 19.5 21.4 19.0 97 0.3 E 7 9 4 5 1016.5 1012.9 3.8
23/05:00am 19.8 22.0 19.5 98 0.2 E 7 9 4 5 1016.2 1012.6 3.8
23/04:30am 19.9 21.7 19.6 98 0.2 E 9 9 5 5 1016.0 1012.4 3.8
23/04:00am 19.9 21.3 19.6 98 0.2 E 11 11 6 6 1015.9 1012.3 3.8
23/03:30am 19.9 22.0 19.4 97 0.3 E 7 9 4 5 1015.9 1012.3 3.8
23/03:00am 20.2 22.1 19.7 97 0.3 ENE 9 11 5 6 1016.0 1012.4 3.8
23/02:30am 20.6 22.3 20.1 97 0.3 ENE 11 13 6 7 1016.1 1012.5 3.8
23/02:00am 20.3 22.1 19.6 96 0.5 E 9 11 5 6 1016.3 1012.7 3.8
23/01:30am 20.4 21.7 19.4 94 0.6 E 11 13 6 7 1016.4 1012.8 3.8
23/01:00am 20.4 22.0 19.1 92 0.8 E 9 11 5 6 1016.6 1013.0 3.8
23/12:30am 20.7 22.2 19.0 90 1.1 E 9 11 5 6 1016.9 1013.2 3.8
23/12:00am 21.9 23.3 18.7 82 2.1 ENE 9 13 5 7 1017.0 1013.3 3.8
 
Date/Time
EST
Temp
°C
App
Temp
°C
Dew
Point
°C
Rel
Hum
%
Delta-T
°C
Wind Press
QNH
hPa
Press
MSL
hPa
Rain since
9am
mm
Dir  Spd
km/h
Gust
km/h
Spd
kts
Gust
kts
22/11:30pm 22.3 23.7 18.7 80 2.3 NE 9 13 5 7 1017.3 1013.7 3.8
22/11:00pm 22.7 24.0 18.5 77 2.7 NNE 9 13 5 7 1017.4 1013.8 3.8
22/10:30pm 23.0 23.5 18.3 75 3.0 NNE 13 15 7 8 1017.5 1013.9 3.8
22/10:00pm 23.0 24.3 18.5 76 2.9 NNE 9 11 5 6 1017.8 1014.2 3.8
22/09:30pm 23.1 24.2 18.8 77 2.8 N 11 13 6 7 1017.8 1014.2 3.8
22/09:00pm 23.0 24.3 19.2 79 2.5 NNE 11 13 6 7 1017.9 1014.3 3.8
22/08:30pm 22.6 24.1 19.8 84 1.8 ENE 11 13 6 7 1017.7 1014.1 3.8
22/08:00pm 22.2 23.0 19.9 87 1.5 NE 15 20 8 11 1017.4 1013.8 3.8
22/07:30pm 22.6 23.1 20.1 86 1.7 N 17 26 9 14 1017.3 1013.7 3.6
22/07:04pm 23.5 25.2 21.0 86 1.7 E 13 17 7 9 1016.9 1013.2 3.6
22/07:00pm 23.6 25.1 20.5 83 2.1 E 13 17 7 9 1016.7 1013.1 3.6
22/06:48pm 24.3 26.3 20.0 77 2.9 ESE 9 17 5 9 1016.9 1013.2 3.4
22/06:30pm 25.2 26.1 20.0 73 3.5 SSE 15 20 8 11 1016.5 1012.9 0.0
22/06:00pm 27.2 27.4 17.7 56 6.1 ENE 13 17 7 9 1015.9 1012.3 0.0
22/05:30pm 27.8 28.0 17.6 53 6.6 ENE 13 17 7 9 1015.6 1011.9 0.0
22/05:00pm 28.0 28.0 17.2 51 7.0 ENE 13 17 7 9 1015.4 1011.7 0.0
22/04:30pm 28.3 28.9 16.9 50 7.3 ENE 9 17 5 9 1015.0 1011.4 0.0
22/04:00pm 29.6 30.4 17.4 47 7.9 E 9 15 5 8 1015.0 1011.4 0.0
22/03:30pm 29.1 30.2 17.9 50 7.3 E 9 19 5 10 1015.3 1011.6 0.0
22/03:00pm 28.5 28.7 17.7 52 7.0 NE 13 20 7 11 1015.4 1011.7 0.0
22/02:30pm 28.4 29.7 17.6 52 7.0 ENE 7 11 4 6 1015.6 1011.9 0.0
22/02:00pm 28.6 30.1 17.5 51 7.2 SW 6 13 3 7 1016.0 1012.4 0.0
22/01:30pm 29.7 31.8 18.2 50 7.5 SW 4 9 2 5 1016.3 1012.7 0.0
22/01:00pm 28.9 30.1 19.8 58 6.1 WSW 13 20 7 11 1016.7 1013.1 0.0
22/12:30pm 28.0 28.8 18.1 55 6.5 SW 11 17 6 9 1017.1 1013.4 0.0
22/12:00pm 27.3 29.1 18.3 58 5.9 WSW 6 13 3 7 1017.5 1013.9 0.0
22/11:30am 26.8 28.5 18.6 60 5.4 SW 7 15 4 8 1017.8 1014.2 0.0
22/11:00am 26.1 26.7 17.7 60 5.4 W 11 17 6 9 1018.2 1014.6 0.0
22/10:30am 25.9 28.7 18.8 65 4.6 NNE 2 9 1 5 1018.7 1015.1 0.0
22/10:00am 25.9 28.4 19.1 66 4.5 ESE 4 9 2 5 1018.9 1015.3 0.0
22/09:30am 24.8 26.9 19.0 70 3.8 W 6 13 3 7 1019.1 1015.5 0.0
22/09:00am 23.8 25.6 18.4 72 3.5 E 6 9 3 5 1019.2 1015.6 0.0
22/08:30am 23.1 24.3 19.1 78 2.6 NNE 11 13 6 7 1019.0 1015.4 0.0
22/08:00am 22.8 23.7 19.2 80 2.3 E 13 17 7 9 1018.6 1014.9 0.0
22/07:30am 21.4 21.9 19.3 88 1.4 E 15 19 8 10 1018.4 1014.8 0.0
22/07:00am 20.4 21.7 19.2 93 0.8 E 11 15 6 8 1018.3 1014.7 0.0
22/06:43am 20.0 20.7 18.8 93 0.8 E 13 17 7 9 1018.3 1014.7 0.0
22/06:30am 19.8 20.6 19.0 95 0.5 E 13 15 7 8 1018.2 1014.6 0.0
22/06:00am 19.5 20.5 18.7 95 0.5 ENE 11 13 6 7 1018.0 1014.4 0.0
22/05:30am 19.4 20.4 18.7 96 0.4 E 11 13 6 7 1017.6 1014.0 0.0
22/05:00am 19.3 20.8 19.0 98 0.2 E 9 13 5 7 1017.4 1013.8 0.0
22/04:52am 19.1 20.6 18.8 98 0.2 E 9 13 5 7 1017.3 1013.7 0.0
22/04:30am 19.1 20.6 18.8 98 0.2 ESE 9 11 5 6 1017.3 1013.7 0.0
22/04:18am 19.3 21.2 19.0 98 0.2 ENE 7 13 4 7 1017.2 1013.5 0.0
22/04:07am 19.4 21.9 19.1 98 0.2 ENE 4 7 2 4 1017.1 1013.4 0.0
22/04:00am 19.4 22.7 19.1 98 0.2 CALM 0 0 0 0 1017.0 1013.3 0.0
22/03:43am 19.2 21.6 18.9 98 0.2 E 4 7 2 4 1017.0 1013.3 0.0
22/03:30am 19.1 20.9 18.8 98 0.2 NE 7 9 4 5 1016.7 1013.1 0.0
22/03:00am 19.1 22.1 18.4 96 0.4 CALM 0 0 0 0 1016.7 1013.1 0.0
22/02:30am 19.4 21.2 18.7 96 0.4 E 7 11 4 6 1016.7 1013.1 0.0
22/02:00am 19.6 20.0 18.9 96 0.4 E 15 19 8 10 1016.9 1013.2 0.0
22/01:30am 19.7 19.7 19.0 96 0.5 E 17 22 9 12 1017.0 1013.3 0.0
22/01:18am 19.7 19.4 19.2 97 0.3 E 19 22 10 12 1017.1 1013.4 0.0
22/01:00am 19.9 19.5 19.4 97 0.3 E 20 26 11 14 1017.3 1013.7 0.0
22/12:30am 20.1 19.0 19.4 96 0.5 E 24 30 13 16 1017.4 1013.8 0.0
22/12:00am 20.2 18.7 19.4 95 0.5 E 26 33 14 18 1017.8 1014.2 0.0
 
Date/Time
EST
Temp
°C
App
Temp
°C
Dew
Point
°C
Rel
Hum
%
Delta-T
°C
Wind Press
QNH
hPa
Press
MSL
hPa
Rain since
9am
mm
Dir  Spd
km/h
Gust
km/h
Spd
kts
Gust
kts
21/11:30pm 20.4 18.9 19.4 94 0.6 E 26 33 14 18 1018.1 1014.5 0.0
21/11:00pm 20.5 18.6 19.3 93 0.8 E 28 35 15 19 1018.2 1014.6 0.0
21/10:30pm 20.7 18.4 19.4 92 0.8 E 30 37 16 20 1018.2 1014.6 0.0
21/10:00pm 20.9 18.3 19.6 92 0.8 E 32 37 17 20 1018.3 1014.7 0.0
21/09:44pm 21.1 19.4 19.7 92 0.9 E 28 35 15 19 1018.2 1014.6 0.0
21/09:30pm 21.2 19.5 19.8 92 0.9 E 28 35 15 19 1018.0 1014.4 0.0
21/09:00pm 21.4 19.7 19.7 90 1.1 ESE 28 35 15 19 1017.7 1014.1 0.0
21/08:30pm 21.8 20.3 19.4 86 1.6 E 26 32 14 17 1017.6 1014.0 0.0
21/08:00pm 22.4 20.2 18.8 80 2.3 ESE 28 33 15 18 1017.2 1013.5 0.0
21/07:30pm 23.3 22.1 18.4 74 3.2 E 22 28 12 15 1016.6 1013.0 0.0
21/07:00pm 23.8 22.9 18.2 71 3.6 E 20 26 11 14 1016.2 1012.6 0.0
21/06:30pm 24.3 22.6 18.0 68 4.1 E 24 33 13 18 1015.9 1012.3 0.0
21/06:00pm 24.7 23.3 17.9 66 4.4 E 22 30 12 16 1015.6 1011.9 0.0
21/05:30pm 25.3 24.2 17.7 62 4.9 E 20 28 11 15 1015.3 1011.6 0.0
21/05:00pm 25.8 24.3 17.7 61 5.2 E 22 28 12 15 1015.0 1011.4 0.0
21/04:30pm 26.5 25.3 18.4 61 5.3 E 22 26 12 14 1014.7 1011.1 0.0
21/04:00pm 27.2 27.0 18.5 59 5.7 E 17 22 9 12 1014.6 1011.0 0.0
21/03:30pm 27.4 27.3 17.8 55 6.2 E 15 20 8 11 1014.8 1011.2 0.0
21/03:00pm 27.7 28.0 18.7 58 5.9 E 15 20 8 11 1015.1 1011.5 0.0
21/02:30pm 26.6 27.2 17.7 58 5.7 ESE 11 20 6 11 1015.4 1011.7 0.0
21/02:00pm 27.0 28.1 18.0 58 5.8 ENE 9 17 5 9 1015.8 1012.1 0.0
21/01:30pm 27.7 29.7 16.9 51 6.9 NNW 2 11 1 6 1016.2 1012.6 0.0
21/01:00pm 26.6 28.5 18.5 61 5.3 NE 6 9 3 5 1016.5 1012.9 0.0
21/12:30pm 26.1 27.2 18.8 64 4.8 E 11 15 6 8 1017.2 1013.5 0.0
21/12:00pm 26.1 27.8 18.0 61 5.2 NNE 6 13 3 7 1017.6 1014.0 0.0
21/11:30am 26.3 28.7 19.7 67 4.4 N 6 11 3 6 1017.8 1014.2 0.0
21/11:00am 25.5 28.1 18.4 65 4.6 SE 2 9 1 5 1018.1 1014.5 0.0
21/10:30am 25.5 27.9 18.7 66 4.4 NE 4 9 2 5 1018.6 1014.9 0.0
21/10:00am 24.5 26.0 18.0 67 4.2 NNE 7 13 4 7 1018.8 1015.2 0.0
21/09:30am 23.7 25.4 18.6 73 3.3 ENE 7 15 4 8 1018.9 1015.3 0.0
21/09:00am 23.2 24.4 18.3 74 3.2 NE 9 15 5 8 1018.8 1015.2 0.0
21/08:30am 22.2 23.6 18.6 80 2.3 ENE 9 13 5 7 1018.9 1015.3 0.0
21/08:00am 21.3 22.4 18.1 82 2.0 NE 9 15 5 8 1018.9 1015.3 0.0
21/07:30am 20.4 20.8 18.2 87 1.4 ENE 13 15 7 8 1018.6 1014.9 0.0
21/07:18am 19.8 19.8 18.1 90 1.1 ENE 15 17 8 9 1018.4 1014.8 0.0
21/07:00am 19.2 19.5 18.0 93 0.8 ENE 13 19 7 10 1018.3 1014.7 0.0
21/06:30am 18.9 19.7 18.2 96 0.4 ENE 11 13 6 7 1018.2 1014.6 0.0
21/06:00am 18.5 18.5 18.0 97 0.3 ENE 15 19 8 10 1017.7 1014.1 0.0
21/05:30am 18.6 19.0 18.1 97 0.3 ENE 13 19 7 10 1017.5 1013.9 0.0
21/05:00am 18.7 17.8 18.2 97 0.3 E 20 24 11 13 1017.3 1013.7 0.0
21/04:47am 18.7 17.8 18.2 97 0.3 E 20 26 11 14 1017.1 1013.4 0.0
21/04:34am 18.6 17.8 18.1 97 0.3 E 19 20 10 11 1017.0 1013.3 0.0
21/04:30am 18.6 18.1 17.9 96 0.4 E 17 20 9 11 1017.0 1013.3 0.0
21/04:00am 18.8 18.1 18.3 97 0.3 E 19 24 10 13 1017.0 1013.3 0.0
21/03:30am 18.8 17.6 18.3 97 0.3 E 22 26 12 14 1017.0 1013.3 0.0
21/03:00am 18.8 17.9 18.1 96 0.4 E 20 26 11 14 1016.9 1013.2 0.0
21/02:30am 18.9 17.8 18.6 98 0.2 E 22 28 12 15 1016.7 1013.1 0.0
21/02:26am 18.8 17.3 18.5 98 0.2 E 24 28 13 15 1016.6 1013.0 0.0
21/02:15am 18.8 17.3 18.5 98 0.2 E 24 30 13 16 1016.5 1012.9 0.0
21/02:09am 18.9 17.4 18.6 98 0.2 E 24 30 13 16 1016.6 1013.0 0.0
21/02:00am 19.0 17.1 18.5 97 0.3 E 26 33 14 18 1016.7 1013.1 0.0
21/01:51am 19.0 17.1 18.5 97 0.3 E 26 35 14 19 1016.9 1013.2 0.0
21/01:30am 19.1 17.6 18.6 97 0.3 E 24 35 13 19 1016.9 1013.2 0.0
21/01:00am 19.0 16.6 18.3 96 0.4 E 28 35 15 19 1017.0 1013.3 0.0
21/12:30am 19.1 16.3 18.3 95 0.5 E 30 35 16 19 1017.3 1013.7 0.0
21/12:00am 19.3 16.7 18.6 96 0.4 E 30 35 16 19 1017.5 1013.9 0.0
 
Date/Time
EST
Temp
°C
App
Temp
°C
Dew
Point
°C
Rel
Hum
%
Delta-T
°C
Wind Press
QNH
hPa
Press
MSL
hPa
Rain since
9am
mm
Dir  Spd
km/h
Gust
km/h
Spd
kts
Gust
kts
20/11:30pm 19.6 17.8 18.8 95 0.5 E 26 35 14 19 1017.8 1014.2 0.0
20/11:00pm 19.5 16.9 18.7 95 0.5 E 30 39 16 21 1017.8 1014.2 0.0
20/10:30pm 19.7 17.2 18.9 95 0.5 E 30 37 16 20 1017.7 1014.1 0.0
20/10:12pm 19.8 18.1 19.0 95 0.5 E 26 33 14 18 1017.6 1014.0 0.0
20/10:00pm 19.9 18.5 18.9 94 0.6 E 24 30 13 16 1017.6 1014.0 0.0
20/09:30pm 20.2 18.9 19.0 93 0.8 E 24 32 13 17 1017.7 1014.1 0.0
20/09:00pm 20.8 19.4 18.9 89 1.2 E 24 30 13 16 1017.6 1014.0 0.0
20/08:30pm 21.1 19.0 19.0 88 1.4 E 28 35 15 19 1017.2 1013.5 0.0
20/08:00pm 21.5 19.9 19.1 86 1.6 E 26 35 14 19 1016.9 1013.2 0.0
20/07:30pm 22.4 20.3 18.0 76 2.8 E 26 33 14 18 1016.5 1012.9 0.0
20/07:00pm 23.3 21.4 16.8 67 4.1 E 22 30 12 16 1016.3 1012.7 0.0
20/06:30pm 24.0 21.8 17.0 65 4.4 E 24 32 13 17 1015.9 1012.3 0.0
20/06:00pm 25.0 23.4 17.5 63 4.8 E 22 26 12 14 1015.8 1012.1 0.0
20/05:30pm 25.4 24.0 17.1 60 5.3 E 20 26 11 14 1015.5 1011.8 0.0
20/05:00pm 25.7 24.2 16.8 58 5.7 E 20 26 11 14 1015.3 1011.6 0.0
20/04:30pm 26.9 25.6 16.8 54 6.4 E 19 24 10 13 1015.1 1011.5 0.0
20/04:00pm 26.7 25.6 16.3 53 6.6 ENE 17 26 9 14 1015.1 1011.5 0.0
20/03:30pm 26.9 26.4 15.9 51 6.9 SE 13 19 7 10 1015.3 1011.6 0.0
20/03:00pm 26.9 26.5 17.1 55 6.3 SE 15 20 8 11 1015.6 1011.9 0.0
20/02:30pm 27.2 28.2 16.8 53 6.6 SSE 7 15 4 8 1015.8 1012.1 0.0
20/02:00pm 27.4 27.7 16.1 50 7.1 NNE 9 15 5 8 1016.0 1012.4 0.0
20/01:30pm 25.7 26.2 16.5 56 5.8 SW 9 13 5 7 1016.6 1013.0 0.0
20/01:00pm 25.3 25.7 16.2 57 5.7 SE 9 15 5 8 1016.9 1013.2 0.0
20/12:30pm 26.0 27.4 16.3 55 6.1 WSW 4 17 2 9 1017.1 1013.4 0.0
20/12:00pm 25.6 25.9 17.0 59 5.5 WNW 11 17 6 9 1017.5 1013.9 0.0
20/11:30am 24.3 24.4 16.6 62 4.9 W 11 24 6 13 1017.7 1014.1 0.0
20/11:00am 24.1 24.2 16.4 62 4.8 NW 11 17 6 9 1018.2 1014.6 0.0
20/10:30am 22.8 23.4 16.8 69 3.8 NW 9 17 5 9 1018.6 1014.9 0.0

Other formats

Comma delimited format used in spreadsheet applications
http://www.bom.gov.au/fwo/IDQ60801/IDQ60801.95551.axf

JavaScript Object Notation format (JSON) in row-major order
http://www.bom.gov.au/fwo/IDQ60801/IDQ60801.95551.json

Data quality

Most of these data are generated automatically and are frequently updated. Quality checks on data are not normally performed. It is possible for incorrect values to appear. Refer to information at About Latest Weather Observations and please check the disclaimer before using these data.